Time;durP1;ratioP1;P1;durP2;ratioP2;P2;SDS_P1;SDS_P2;PMS_P1;PMS_P2;Temp;Humidity;BMP_temperature;BMP_pressure;BME280_temperature;BME280_humidity;BME280_pressure;Samples;Min_cycle;Max_cycle;Signal;HPM_P1;HPM_P2
2022/04/27 00:00:43;;;;;;;17.35;7.32;;;;;;;9.99;90.53;101885.66;5094235;27;20123;-71
2022/04/27 00:03:10;;;;;;;18.33;7.60;;;;;;;9.99;90.93;101891.19;5070965;28;20056;-72
2022/04/27 00:05:37;;;;;;;18.55;8.00;;;;;;;9.93;90.82;101886.34;5067081;28;20139;-71
2022/04/27 00:08:03;;;;;;;18.08;7.65;;;;;;;9.88;90.44;101879.13;5072717;28;20513;-71
2022/04/27 00:10:30;;;;;;;15.57;6.72;;;;;;;9.86;89.95;101886.22;5077145;28;20056;-71
2022/04/27 00:12:56;;;;;;;16.52;7.07;;;;;;;9.82;91.19;101894.41;5071977;28;20196;-70
2022/04/27 00:15:26;;;;;;;15.65;7.25;;;;;;;9.82;91.69;101897.19;5069586;28;20117;-71
2022/04/27 00:17:53;;;;;;;17.38;7.15;;;;;;;9.77;93.12;101880.09;5072742;28;20501;-71
2022/04/27 00:20:19;;;;;;;18.83;6.95;;;;;;;9.75;92.54;101888.75;5068629;28;20106;-71
2022/04/27 00:22:46;;;;;;;18.67;7.05;;;;;;;9.71;92.08;101890.63;5071449;28;20058;-71
2022/04/27 00:25:12;;;;;;;18.80;7.38;;;;;;;9.70;92.58;101889.03;5068383;28;20178;-71
2022/04/27 00:27:39;;;;;;;17.13;7.32;;;;;;;9.70;93.28;101891.00;5065071;28;20139;-71
2022/04/27 00:30:06;;;;;;;19.10;7.63;;;;;;;9.65;93.85;101889.31;5070347;28;20127;-71
2022/04/27 00:32:33;;;;;;;16.73;7.80;;;;;;;9.64;94.58;101890.50;5070401;28;20057;-72
2022/04/27 00:35:00;;;;;;;20.20;7.72;;;;;;;9.62;93.50;101892.03;5068585;28;20154;-72
2022/04/27 00:37:26;;;;;;;15.60;7.22;;;;;;;9.59;93.94;101887.22;5061847;28;20377;-72
2022/04/27 00:39:53;;;;;;;16.73;8.50;;;;;;;9.56;95.35;101888.75;5065810;28;20168;-71
2022/04/27 00:42:24;;;;;;;17.10;7.93;;;;;;;9.53;94.86;101886.69;5065173;28;20036;-72
2022/04/27 00:44:50;;;;;;;15.80;7.80;;;;;;;9.51;94.61;101893.72;5066287;28;20063;-71
2022/04/27 00:47:18;;;;;;;19.58;7.68;;;;;;;9.49;95.98;101898.84;5063360;28;20140;-71
2022/04/27 00:49:50;;;;;;;18.77;9.15;;;;;;;9.46;95.98;101881.03;5069337;28;20049;-71
2022/04/27 00:52:18;;;;;;;18.70;7.90;;;;;;;9.44;95.94;101875.06;5054717;28;20517;-71
2022/04/27 00:54:51;;;;;;;16.42;6.97;;;;;;;9.42;96.97;101888.41;5070484;28;20156;-71
2022/04/27 00:57:18;;;;;;;19.02;8.02;;;;;;;9.40;97.06;101879.69;5066596;28;20064;-72
2022/04/27 00:59:47;;;;;;;18.00;7.63;;;;;;;9.37;96.97;101891.47;5069383;28;20496;-71
2022/04/27 01:02:14;;;;;;;18.15;8.20;;;;;;;9.33;97.63;101890.59;5063460;28;20124;-71
2022/04/27 01:04:41;;;;;;;17.92;8.57;;;;;;;9.32;98.28;101888.97;5067828;28;20040;-72
2022/04/27 01:07:09;;;;;;;20.85;8.05;;;;;;;9.30;97.78;101888.56;5071076;28;20048;-71
2022/04/27 01:09:35;;;;;;;19.55;8.05;;;;;;;9.30;98.20;101890.50;5069135;28;20045;-70
2022/04/27 01:12:02;;;;;;;16.90;8.38;;;;;;;9.26;99.04;101887.69;5060578;28;20048;-71
2022/04/27 01:14:40;;;;;;;16.80;8.02;;;;;;;9.20;97.22;101891.06;5069385;28;20049;-71
2022/04/27 01:17:06;;;;;;;17.50;7.70;;;;;;;9.15;99.23;101897.66;5066766;28;20139;-70
2022/04/27 01:19:33;;;;;;;25.20;11.45;;;;;;;9.13;99.79;101900.00;5066450;28;20419;-70
2022/04/27 01:22:02;;;;;;;18.00;7.93;;;;;;;9.13;99.68;101908.28;5064887;28;20140;-70
2022/04/27 01:24:30;;;;;;;19.33;8.00;;;;;;;9.08;98.92;101908.53;5067712;28;20437;-71
2022/04/27 01:26:57;;;;;;;19.17;8.75;;;;;;;8.98;98.52;101902.78;5067596;28;20094;-71
2022/04/27 01:29:24;;;;;;;18.45;8.65;;;;;;;8.98;99.77;101911.06;5071393;28;20150;-71
2022/04/27 01:31:51;;;;;;;16.63;8.45;;;;;;;8.92;100.00;101912.47;5066850;28;20516;-71
2022/04/27 01:34:19;;;;;;;18.70;8.30;;;;;;;8.91;100.00;101921.94;5066127;28;20131;-71
2022/04/27 01:36:46;;;;;;;20.65;9.30;;;;;;;8.88;100.00;101917.91;5062564;28;20048;-70
2022/04/27 01:39:12;;;;;;;20.08;9.35;;;;;;;8.82;100.00;101910.25;5066456;28;20037;-70
2022/04/27 01:41:39;;;;;;;20.42;8.93;;;;;;;8.74;99.74;101920.31;5063025;28;20050;-71
2022/04/27 01:44:06;;;;;;;18.95;9.07;;;;;;;8.72;100.00;101922.66;5067871;28;20135;-71
2022/04/27 01:46:32;;;;;;;21.83;8.63;;;;;;;8.70;100.00;101930.47;5064652;28;20044;-70
2022/04/27 01:49:00;;;;;;;17.33;8.63;;;;;;;8.71;100.00;101934.03;5063288;28;20094;-70
2022/04/27 01:54:18;;;;;;;17.48;8.45;;;;;;;8.64;100.00;101940.16;5072586;28;20157;-70
2022/04/27 01:56:46;;;;;;;19.17;9.93;;;;;;;8.60;100.00;101944.78;5064356;28;20056;-70
2022/04/27 01:59:12;;;;;;;19.48;8.48;;;;;;;8.54;100.00;101935.16;5061032;28;20048;-70
2022/04/27 02:01:40;;;;;;;18.52;8.90;;;;;;;8.49;100.00;101932.69;5065970;28;20520;-70
2022/04/27 02:04:07;;;;;;;22.52;9.25;;;;;;;8.46;100.00;101935.31;5064488;28;20051;-72
2022/04/27 02:06:37;;;;;;;19.35;9.35;;;;;;;8.43;100.00;101938.81;5065566;28;20044;-71
2022/04/27 02:09:04;;;;;;;17.70;8.90;;;;;;;8.44;100.00;101943.16;5070764;28;20134;-70
2022/04/27 02:11:32;;;;;;;22.63;10.23;;;;;;;8.42;100.00;101949.03;5067677;28;20087;-71
2022/04/27 02:13:59;;;;;;;17.67;9.23;;;;;;;8.36;100.00;101947.69;5064346;28;20045;-70
2022/04/27 02:16:27;;;;;;;18.95;9.23;;;;;;;8.34;100.00;101951.97;5065382;28;20690;-71
2022/04/27 02:18:55;;;;;;;22.90;10.07;;;;;;;8.32;100.00;101951.50;5067134;28;20106;-70
2022/04/27 02:21:22;;;;;;;22.33;9.55;;;;;;;8.27;100.00;101954.53;5065010;28;20574;-70
2022/04/27 02:23:49;;;;;;;20.83;9.85;;;;;;;8.28;100.00;101948.66;5064880;28;21166;-70
2022/04/27 02:26:16;;;;;;;19.02;8.75;;;;;;;8.23;100.00;101948.09;5062097;28;20139;-70
2022/04/27 02:28:43;;;;;;;18.63;9.57;;;;;;;8.25;100.00;101954.06;5067313;28;20052;-70
2022/04/27 02:31:09;;;;;;;23.02;9.65;;;;;;;8.24;100.00;101950.53;5066574;28;20049;-71
2022/04/27 02:33:36;;;;;;;18.83;8.48;;;;;;;8.22;100.00;101954.75;5068656;28;20539;-70
2022/04/27 02:36:03;;;;;;;21.92;9.88;;;;;;;8.21;100.00;101951.19;5067411;28;20049;-70
2022/04/27 02:38:29;;;;;;;20.45;8.77;;;;;;;8.17;100.00;101966.84;5067532;28;20048;-70
2022/04/27 02:40:56;;;;;;;22.13;9.63;;;;;;;8.16;100.00;101956.94;5064619;28;20058;-71
2022/04/27 02:43:22;;;;;;;19.75;9.55;;;;;;;8.15;100.00;101962.81;5061899;28;20055;-70
2022/04/27 02:45:49;;;;;;;19.83;9.98;;;;;;;8.12;100.00;101972.59;5065782;28;20054;-71
2022/04/27 02:48:15;;;;;;;18.17;9.18;;;;;;;8.11;100.00;101973.75;5054039;28;20060;-71
2022/04/27 02:53:27;;;;;;;22.85;9.20;;;;;;;8.06;100.00;101971.22;5070989;28;20049;-71
2022/04/27 02:55:53;;;;;;;21.67;9.48;;;;;;;8.01;100.00;101972.25;5071995;28;20040;-70
2022/04/27 02:58:20;;;;;;;22.20;10.18;;;;;;;7.99;100.00;101973.78;5066795;28;20048;-70
2022/04/27 03:00:47;;;;;;;22.85;10.38;;;;;;;8.01;100.00;101983.28;5066941;28;20052;-70
2022/04/27 03:03:14;;;;;;;18.42;9.68;;;;;;;7.99;100.00;101976.53;5065706;28;20079;-71
2022/04/27 03:05:40;;;;;;;21.27;9.77;;;;;;;7.97;100.00;101979.63;5065965;28;20241;-70
2022/04/27 03:08:08;;;;;;;20.25;9.27;;;;;;;7.90;100.00;101976.66;5069266;28;20056;-71
2022/04/27 03:10:34;;;;;;;19.23;10.13;;;;;;;7.93;100.00;101980.66;5067371;28;20145;-71
2022/04/27 03:13:01;;;;;;;19.02;9.98;;;;;;;7.91;100.00;101980.25;5060121;28;20045;-70
2022/04/27 03:15:27;;;;;;;20.35;9.73;;;;;;;7.88;100.00;101983.69;5063037;28;20424;-71
2022/04/27 03:20:52;;;;;;;22.52;8.55;;;;;;;7.80;100.00;101981.88;5059195;28;20055;-71
2022/04/27 03:23:19;;;;;;;19.10;9.18;;;;;;;7.78;100.00;101989.69;5070213;28;20059;-70
2022/04/27 03:25:46;;;;;;;18.83;9.40;;;;;;;7.72;100.00;101991.88;5059657;28;20052;-70
2022/04/27 03:28:12;;;;;;;21.17;9.45;;;;;;;7.67;100.00;101986.59;5060688;28;20044;-71
2022/04/27 03:30:39;;;;;;;19.77;9.88;;;;;;;7.66;100.00;101981.44;5065477;28;20135;-70
2022/04/27 03:33:05;;;;;;;20.13;10.10;;;;;;;7.66;100.00;101981.44;5067292;28;20102;-71
2022/04/27 03:35:32;;;;;;;20.90;9.45;;;;;;;7.65;100.00;101990.84;5066504;28;20060;-71
2022/04/27 03:37:59;;;;;;;24.05;9.68;;;;;;;7.58;100.00;101985.13;5069063;28;20093;-70
2022/04/27 03:40:25;;;;;;;22.83;11.38;;;;;;;7.50;100.00;101995.09;5065872;28;20131;-71
2022/04/27 03:42:52;;;;;;;19.77;9.43;;;;;;;7.49;100.00;101998.19;5062045;28;20076;-71
2022/04/27 03:45:20;;;;;;;21.48;10.25;;;;;;;7.46;100.00;101999.69;5067216;28;20083;-70
2022/04/27 03:47:49;;;;;;;20.65;10.27;;;;;;;7.44;100.00;101998.44;5066747;28;20086;-71
2022/04/27 03:50:16;;;;;;;23.00;10.57;;;;;;;7.45;100.00;101987.09;5061647;28;20140;-72
2022/04/27 03:52:44;;;;;;;23.90;10.25;;;;;;;7.47;100.00;101995.00;5062859;28;20045;-71
2022/04/27 03:55:11;;;;;;;19.83;10.15;;;;;;;7.42;100.00;101992.47;5067474;28;20053;-71
2022/04/27 03:57:38;;;;;;;21.63;10.75;;;;;;;7.44;100.00;102006.72;5067584;28;20809;-70
2022/04/27 04:00:06;;;;;;;22.40;11.52;;;;;;;7.38;100.00;101997.06;5070022;28;20075;-71
2022/04/27 04:02:33;;;;;;;17.80;9.57;;;;;;;7.41;100.00;102008.22;5069346;28;20056;-71
2022/04/27 04:05:00;;;;;;;24.15;10.27;;;;;;;7.44;100.00;102018.53;5070547;28;20142;-71
2022/04/27 04:07:26;;;;;;;23.48;10.95;;;;;;;7.43;100.00;102016.13;5071208;28;20153;-71
2022/04/27 04:09:53;;;;;;;23.42;10.27;;;;;;;7.37;100.00;102010.06;5070834;28;20057;-71
2022/04/27 04:12:19;;;;;;;26.63;10.82;;;;;;;7.36;100.00;102018.66;5069144;28;20135;-70
2022/04/27 04:14:46;;;;;;;19.75;10.82;;;;;;;7.29;100.00;102016.47;5063191;28;20434;-71
2022/04/27 04:17:12;;;;;;;23.55;11.63;;;;;;;7.28;100.00;102016.81;5075606;28;20143;-71
2022/04/27 04:19:39;;;;;;;21.50;11.52;;;;;;;7.20;100.00;102028.75;5073048;28;20056;-70
2022/04/27 04:22:06;;;;;;;22.98;11.27;;;;;;;7.17;100.00;102026.66;5077853;28;21699;-72
2022/04/27 04:24:33;;;;;;;22.77;11.20;;;;;;;7.12;100.00;102029.66;5069936;28;20135;-70
2022/04/27 04:29:45;;;;;;;23.40;11.02;;;;;;;7.08;100.00;102034.22;5068209;28;20058;-72
2022/04/27 04:32:11;;;;;;;26.13;10.63;;;;;;;7.02;100.00;102036.38;5051671;28;20045;-72
2022/04/27 04:34:38;;;;;;;23.13;11.02;;;;;;;7.03;100.00;102040.78;5059740;28;20127;-69
2022/04/27 04:37:05;;;;;;;25.83;11.93;;;;;;;7.06;100.00;102047.53;5070550;28;20538;-70
2022/04/27 04:39:31;;;;;;;22.88;11.30;;;;;;;7.07;100.00;102046.38;5069991;28;20495;-71
2022/04/27 04:41:58;;;;;;;25.65;11.02;;;;;;;7.02;100.00;102044.66;5066056;28;20052;-71
2022/04/27 04:44:24;;;;;;;25.67;10.70;;;;;;;7.05;100.00;102048.66;5066769;28;20492;-70
2022/04/27 04:46:51;;;;;;;22.73;11.57;;;;;;;7.09;100.00;102061.41;5066466;28;20255;-71
2022/04/27 04:49:17;;;;;;;25.77;11.75;;;;;;;7.12;100.00;102057.19;5073189;28;20283;-72
2022/04/27 04:51:45;;;;;;;28.52;12.70;;;;;;;7.13;100.00;102058.78;5069443;28;20055;-71
2022/04/27 04:54:11;;;;;;;22.90;11.23;;;;;;;7.06;100.00;102055.78;5066480;28;20155;-71
2022/04/27 04:56:38;;;;;;;25.23;11.98;;;;;;;7.09;100.00;102061.41;5070233;28;20525;-71
2022/04/27 04:59:04;;;;;;;23.17;11.15;;;;;;;7.05;100.00;102057.72;5069232;28;20052;-71
2022/04/27 05:01:31;;;;;;;23.90;11.27;;;;;;;7.16;100.00;102060.84;5069112;28;20135;-71
2022/04/27 05:03:58;;;;;;;20.55;11.65;;;;;;;7.16;100.00;102064.38;5067961;28;20525;-70
2022/04/27 05:06:32;;;;;;;27.17;12.90;;;;;;;7.17;100.00;102067.97;5068185;28;20087;-71
2022/04/27 05:08:58;;;;;;;25.10;11.50;;;;;;;7.20;100.00;102068.09;5078999;28;20135;-72
2022/04/27 05:11:26;;;;;;;26.15;12.52;;;;;;;7.27;100.00;102079.34;5074992;28;20056;-71
2022/04/27 05:13:52;;;;;;;25.13;12.63;;;;;;;7.27;100.00;102073.03;5067529;28;20860;-71
2022/04/27 05:16:19;;;;;;;25.33;12.50;;;;;;;7.36;100.00;102080.03;5075089;28;20130;-70
2022/04/27 05:18:45;;;;;;;26.33;11.40;;;;;;;7.41;100.00;102087.25;5069162;28;20053;-71
2022/04/27 05:21:12;;;;;;;24.50;12.15;;;;;;;7.39;100.00;102084.06;5064702;28;20062;-70
2022/04/27 05:23:38;;;;;;;25.48;12.85;;;;;;;7.38;100.00;102090.69;5071766;28;20131;-71
2022/04/27 05:26:05;;;;;;;23.10;12.20;;;;;;;7.36;100.00;102099.28;5058047;28;20053;-71
2022/04/27 05:31:54;;;;;;;25.45;12.60;;;;;;;7.40;100.00;102099.44;5063012;28;20048;-71
2022/04/27 05:34:03;;;;;;;27.70;14.67;;;;;;;7.60;100.00;102101.28;5055896;28;20106;-70
2022/04/27 05:36:29;;;;;;;28.48;12.75;;;;;;;7.62;100.00;102104.47;5060248;28;20048;-71
2022/04/27 05:38:56;;;;;;;24.95;13.07;;;;;;;7.69;100.00;102110.22;5066063;28;20076;-72
2022/04/27 05:41:22;;;;;;;28.08;13.50;;;;;;;7.78;100.00;102105.41;5068159;28;20135;-72
2022/04/27 05:43:48;;;;;;;24.67;14.32;;;;;;;7.92;100.00;102111.38;5059530;28;20567;-72
2022/04/27 05:46:15;;;;;;;26.50;13.75;;;;;;;8.06;100.00;102113.78;5069117;28;20060;-72
2022/04/27 05:48:42;;;;;;;30.70;16.65;;;;;;;8.17;100.00;102109.38;5064176;28;20158;-72
2022/04/27 05:51:08;;;;;;;31.25;14.70;;;;;;;8.28;100.00;102113.28;5062104;28;20052;-71
2022/04/27 05:53:34;;;;;;;26.50;13.60;;;;;;;8.35;100.00;102110.75;5067113;28;20151;-72
2022/04/27 05:56:01;;;;;;;30.00;13.02;;;;;;;8.43;100.00;102116.13;5067474;28;20050;-72
2022/04/27 05:58:30;;;;;;;26.17;13.25;;;;;;;8.54;100.00;102113.69;5061213;28;20519;-72
2022/04/27 06:00:56;;;;;;;22.38;11.60;;;;;;;8.64;100.00;102116.75;5059526;28;20076;-72
2022/04/27 06:03:23;;;;;;;25.67;13.60;;;;;;;8.73;100.00;102119.34;5068290;28;20090;-73
2022/04/27 06:05:49;;;;;;;25.10;13.13;;;;;;;8.77;100.00;102114.75;5067405;28;20063;-72
2022/04/27 06:08:16;;;;;;;22.95;11.20;;;;;;;8.88;100.00;102127.69;5065353;28;20136;-72
2022/04/27 06:10:43;;;;;;;23.20;11.88;;;;;;;8.97;100.00;102130.28;5051218;28;20118;-72
2022/04/27 06:13:09;;;;;;;22.58;11.65;;;;;;;9.03;100.00;102128.88;5066229;28;20127;-72
2022/04/27 06:15:36;;;;;;;23.13;11.63;;;;;;;9.10;100.00;102129.88;5063488;28;20060;-72
2022/04/27 06:18:03;;;;;;;25.05;12.38;;;;;;;9.19;100.00;102135.25;5063322;28;20090;-72
2022/04/27 06:20:29;;;;;;;22.88;11.57;;;;;;;9.26;100.00;102140.97;5064209;28;20449;-72
2022/04/27 06:22:57;;;;;;;27.77;10.90;;;;;;;9.34;100.00;102140.78;5072443;28;20048;-72
2022/04/27 06:25:25;;;;;;;25.23;11.35;;;;;;;9.40;100.00;102144.91;5066753;28;20489;-73
2022/04/27 06:27:52;;;;;;;27.45;11.35;;;;;;;9.47;100.00;102145.09;5074367;28;20603;-72
2022/04/27 06:30:18;;;;;;;22.98;10.52;;;;;;;9.56;100.00;102144.91;5067312;28;20066;-72
2022/04/27 06:32:45;;;;;;;21.88;10.32;;;;;;;9.66;100.00;102142.41;5064344;28;20052;-72
2022/04/27 06:35:13;;;;;;;21.92;10.65;;;;;;;9.75;100.00;102140.28;5069159;28;20160;-73
2022/04/27 06:37:40;;;;;;;23.42;11.07;;;;;;;9.87;100.00;102150.44;5057033;28;20175;-72
2022/04/27 06:40:06;;;;;;;24.65;11.93;;;;;;;9.93;100.00;102133.19;5062101;28;20141;-72
2022/04/27 06:42:33;;;;;;;24.17;11.05;;;;;;;10.11;100.00;102141.97;5066617;28;20076;-72
2022/04/27 06:45:03;;;;;;;21.20;9.75;;;;;;;10.16;99.36;102153.53;5066735;28;20402;-71
2022/04/27 06:47:30;;;;;;;19.25;8.88;;;;;;;10.28;98.38;102156.22;5062568;28;20417;-71
2022/04/27 06:49:57;;;;;;;20.98;9.25;;;;;;;10.38;97.02;102150.09;5063581;28;20049;-73
2022/04/27 06:52:23;;;;;;;19.25;8.82;;;;;;;10.49;96.80;102151.16;5064596;28;20127;-71
2022/04/27 06:54:50;;;;;;;18.33;8.88;;;;;;;10.59;95.71;102152.53;5059618;28;20128;-72
2022/04/27 06:57:16;;;;;;;21.42;8.23;;;;;;;10.69;93.42;102154.72;5061717;28;20049;-72
2022/04/27 06:59:43;;;;;;;28.67;8.27;;;;;;;10.80;93.18;102154.97;5058631;28;20537;-73
2022/04/27 07:02:12;;;;;;;20.05;7.10;;;;;;;10.94;91.84;102161.59;5055349;28;20044;-73
2022/04/27 07:04:41;;;;;;;20.30;8.25;;;;;;;11.03;90.96;102162.16;5059702;28;20156;-73
2022/04/27 07:07:08;;;;;;;17.92;7.78;;;;;;;11.16;90.21;102160.03;5090950;28;20640;-69
2022/04/27 07:09:35;;;;;;;22.45;8.57;;;;;;;11.23;89.14;102166.50;5075663;28;20055;-72
2022/04/27 07:12:03;;;;;;;18.58;8.50;;;;;;;11.29;88.33;102158.69;5066136;28;20048;-72
2022/04/27 07:14:29;;;;;;;21.08;7.65;;;;;;;11.34;87.42;102158.41;5059135;28;20556;-72
2022/04/27 07:16:56;;;;;;;24.77;8.75;;;;;;;11.42;87.54;102162.91;5058521;28;20056;-73
2022/04/27 07:19:22;;;;;;;17.52;7.85;;;;;;;11.53;85.14;102172.19;5066975;28;20127;-73
2022/04/27 07:21:49;;;;;;;18.05;7.57;;;;;;;11.64;85.11;102164.94;5065796;28;20140;-73
2022/04/27 07:24:15;;;;;;;19.88;7.28;;;;;;;11.75;84.05;102168.69;5065463;28;20053;-72
2022/04/27 07:26:42;;;;;;;17.08;6.82;;;;;;;11.81;82.19;102181.84;5067401;28;20083;-72
2022/04/27 07:29:09;;;;;;;16.42;6.85;;;;;;;11.92;82.44;102177.28;5061686;28;20132;-73
2022/04/27 07:31:35;;;;;;;13.10;6.13;;;;;;;11.97;79.27;102178.94;5066743;28;20059;-74
2022/04/27 07:34:02;;;;;;;15.70;6.75;;;;;;;12.02;78.10;102187.75;5069874;28;20074;-72
2022/04/27 07:36:28;;;;;;;18.40;6.47;;;;;;;12.03;77.00;102171.91;5070250;28;20072;-73
2022/04/27 07:38:56;;;;;;;15.05;6.70;;;;;;;12.13;77.42;102174.88;5052320;28;20053;-73
2022/04/27 07:41:22;;;;;;;13.68;4.80;;;;;;;12.16;75.92;102176.09;5068460;28;20054;-73
2022/04/27 07:43:49;;;;;;;18.60;5.82;;;;;;;12.21;74.44;102170.19;5069157;28;20098;-72
2022/04/27 07:46:16;;;;;;;13.02;4.88;;;;;;;12.28;73.42;102184.19;5070511;28;20080;-73
2022/04/27 07:48:42;;;;;;;13.73;5.15;;;;;;;12.34;72.16;102174.38;5068542;28;20105;-75
2022/04/27 07:51:09;;;;;;;12.13;5.50;;;;;;;12.44;73.30;102182.06;5073919;28;20053;-73
2022/04/27 07:53:36;;;;;;;14.48;4.88;;;;;;;12.47;71.99;102184.91;5070915;28;20465;-72
2022/04/27 07:56:04;;;;;;;15.93;5.55;;;;;;;12.42;71.47;102178.88;5071920;28;20071;-74
2022/04/27 07:58:31;;;;;;;12.85;5.60;;;;;;;12.53;70.79;102185.38;5070626;28;20095;-73
2022/04/27 08:00:57;;;;;;;16.77;4.88;;;;;;;12.66;70.30;102183.97;5070207;28;20056;-72
2022/04/27 08:03:25;;;;;;;11.48;3.95;;;;;;;12.67;66.72;102185.56;5088483;28;20083;-71
2022/04/27 08:05:51;;;;;;;8.68;4.18;;;;;;;12.68;65.28;102192.72;5070099;28;20419;-72
2022/04/27 08:08:18;;;;;;;12.07;4.65;;;;;;;12.76;66.63;102199.97;5070728;28;20048;-71
2022/04/27 08:10:49;;;;;;;10.95;4.05;;;;;;;12.78;64.17;102198.41;5068976;28;20048;-72
2022/04/27 08:13:16;;;;;;;9.80;4.72;;;;;;;12.86;64.62;102193.75;5068127;28;20052;-71
2022/04/27 08:15:43;;;;;;;10.95;4.10;;;;;;;12.93;65.56;102200.19;5071847;28;20068;-71
2022/04/27 08:18:10;;;;;;;15.32;5.07;;;;;;;13.04;65.48;102194.81;5070305;28;20117;-72
2022/04/27 08:23:29;;;;;;;15.15;5.60;;;;;;;13.19;63.63;102206.91;5063218;28;20139;-72
2022/04/27 08:26:00;;;;;;;18.52;5.53;;;;;;;13.26;64.77;102206.97;5073025;28;20056;-73
2022/04/27 08:28:27;;;;;;;17.13;5.43;;;;;;;13.29;64.32;102197.88;5063809;28;20067;-73
2022/04/27 08:30:54;;;;;;;10.30;4.57;;;;;;;13.39;64.34;102206.31;5065193;28;20056;-71
2022/04/27 08:33:22;;;;;;;13.23;4.95;;;;;;;13.48;62.95;102208.81;5069214;28;20060;-73
2022/04/27 08:35:49;;;;;;;15.18;5.22;;;;;;;13.53;63.50;102206.47;5067470;28;20136;-73
2022/04/27 08:38:35;;;;;;;;;;;;;;;13.64;62.28;102206.59;5065727;28;20044;-75
2022/04/27 08:41:02;;;;;;;18.27;5.93;;;;;;;13.69;62.35;102212.59;5069838;28;19943;-73
2022/04/27 08:43:29;;;;;;;17.67;6.07;;;;;;;13.75;61.91;102218.63;5064394;28;20043;-73
2022/04/27 08:45:56;;;;;;;16.65;6.45;;;;;;;13.81;61.58;102211.53;5067855;28;20356;-73
2022/04/27 08:48:23;;;;;;;14.45;5.80;;;;;;;13.84;60.35;102219.88;5062651;28;20215;-72
2022/04/27 08:50:51;;;;;;;12.10;5.25;;;;;;;13.95;62.58;102214.44;5067574;28;20056;-70
2022/04/27 08:53:18;;;;;;;14.35;5.80;;;;;;;14.11;61.89;102218.53;5073287;28;20127;-73
2022/04/27 08:55:45;;;;;;;16.38;6.03;;;;;;;14.19;58.76;102220.22;5067513;28;20051;-73
2022/04/27 08:58:13;;;;;;;11.77;5.70;;;;;;;14.29;59.22;102222.31;5069351;28;20170;-71
2022/04/27 09:01:00;;;;;;;17.60;5.82;;;;;;;14.43;58.98;102221.59;5066653;28;20056;-72
2022/04/27 09:03:28;;;;;;;14.68;5.93;;;;;;;14.51;58.17;102214.91;5067298;28;20505;-73
2022/04/27 09:06:11;;;;;;;14.88;5.88;;;;;;;14.55;55.76;102224.88;5064587;28;20136;-72
2022/04/27 09:08:45;;;;;;;15.63;6.40;;;;;;;14.67;56.56;102218.16;5064668;28;20419;-72
2022/04/27 09:11:18;;;;;;;14.70;6.07;;;;;;;14.82;56.81;102223.44;5066931;28;20520;-73
2022/04/27 09:13:59;;;;;;;13.57;6.80;;;;;;;14.89;55.91;102217.13;5061274;28;20079;-75
2022/04/27 09:20:46;;;;;;;16.77;5.82;;;;;;;14.99;56.00;102219.94;5067397;28;20444;-75
2022/04/27 09:22:07;;;;;;;14.48;6.95;;;;;;;15.05;50.46;102221.16;5067875;28;20048;-73
2022/04/27 09:24:53;;;;;;;15.98;6.78;;;;;;;15.17;50.36;102226.41;5073167;28;20135;-74
2022/04/27 09:27:22;;;;;;;16.67;6.63;;;;;;;15.28;50.60;102218.88;5065045;28;20076;-74
2022/04/27 09:30:10;;;;;;;11.10;5.55;;;;;;;15.42;51.09;102218.94;5083512;28;20072;-73
2022/04/27 09:32:37;;;;;;;13.93;6.15;;;;;;;15.60;52.65;102221.78;5057609;28;20134;-73
2022/04/27 09:35:08;;;;;;;19.02;5.47;;;;;;;15.61;50.13;102226.16;5063068;28;20694;-74
2022/04/27 09:37:43;;;;;;;14.82;5.07;;;;;;;15.67;50.25;102232.16;5067853;28;20094;-73
2022/04/27 09:40:11;;;;;;;12.63;5.78;;;;;;;15.60;48.76;102229.34;5053061;28;20105;-73
2022/04/27 09:42:41;;;;;;;16.48;7.32;;;;;;;15.57;49.79;102222.56;5062626;28;20048;-73
2022/04/27 09:45:23;;;;;;;15.02;6.40;;;;;;;15.57;48.68;102221.75;5063641;28;20071;-73
2022/04/27 09:48:00;;;;;;;17.95;6.90;;;;;;;15.69;49.75;102222.19;5058764;28;20143;-72
2022/04/27 09:50:52;;;;;;;14.85;7.25;;;;;;;15.70;49.24;102221.00;5060521;28;20190;-74
2022/04/27 09:53:19;;;;;;;13.18;5.93;;;;;;;15.86;50.22;102212.25;5063382;28;20040;-74
2022/04/27 09:55:51;;;;;;;14.60;6.22;;;;;;;15.97;48.75;102218.63;5063688;28;20140;-74
2022/04/27 09:58:22;;;;;;;13.90;5.95;;;;;;;16.13;48.36;102219.03;5072865;28;20151;-74
2022/04/27 10:00:48;;;;;;;14.32;6.60;;;;;;;16.00;48.07;102221.41;5074107;28;20046;-73
2022/04/27 10:03:18;;;;;;;13.57;6.43;;;;;;;16.13;49.13;102222.63;5065878;28;20416;-76
2022/04/27 10:05:46;;;;;;;15.02;6.38;;;;;;;16.21;48.57;102223.44;5063099;28;20055;-73
2022/04/27 10:08:13;;;;;;;14.63;6.30;;;;;;;16.25;49.45;102213.03;5073099;28;20496;-73
2022/04/27 10:10:41;;;;;;;13.10;5.88;;;;;;;16.56;49.23;102218.63;5098249;28;20065;-75
2022/04/27 10:13:14;;;;;;;15.80;6.45;;;;;;;16.65;49.09;102215.41;5054184;28;20072;-73
2022/04/27 10:15:42;;;;;;;13.02;6.10;;;;;;;16.95;48.45;102208.16;5064727;28;20183;-72
2022/04/27 10:18:15;;;;;;;15.02;6.43;;;;;;;17.19;47.48;102210.03;5067773;28;20143;-75
2022/04/27 10:20:43;;;;;;;14.70;6.53;;;;;;;17.40;47.05;102209.13;5069159;28;20128;-73
2022/04/27 10:23:22;;;;;;;18.67;8.90;;;;;;;17.40;46.30;102212.72;5067461;28;20135;-73
2022/04/27 10:26:07;;;;;;;18.05;7.65;;;;;;;17.55;45.28;102199.50;5066606;28;20540;-76
2022/04/27 10:28:40;;;;;;;16.92;8.07;;;;;;;17.75;45.52;102204.13;5061749;28;20101;-74
2022/04/27 10:31:08;;;;;;;16.15;6.65;;;;;;;17.78;45.09;102199.72;5064851;28;20139;-74
2022/04/27 10:33:48;;;;;;;19.95;7.35;;;;;;;17.84;42.58;102201.66;5059540;28;20055;-73
2022/04/27 10:36:43;;;;;;;8.88;3.63;;;;;;;17.18;41.25;102204.84;5060070;28;20143;-71
2022/04/27 10:39:12;;;;;;;16.00;7.63;;;;;;;17.31;43.89;102201.16;5070798;28;20532;-74
2022/04/27 10:41:40;;;;;;;19.98;8.23;;;;;;;17.43;43.15;102203.56;5065263;28;20600;-73
2022/04/27 10:44:06;;;;;;;19.50;8.60;;;;;;;17.58;43.45;102204.25;5068652;28;20057;-73
2022/04/27 10:46:38;;;;;;;17.50;8.15;;;;;;;17.70;43.20;102200.97;5061073;28;20045;-71
2022/04/27 10:49:22;;;;;;;17.95;8.65;;;;;;;17.83;42.72;102199.28;5062618;28;20091;-73
2022/04/27 10:52:16;;;;;;;17.73;8.93;;;;;;;17.90;42.26;102204.81;5060195;28;20061;-74
2022/04/27 10:54:42;;;;;;;20.33;9.02;;;;;;;18.01;43.33;102205.53;5057833;28;20084;-75
2022/04/27 10:57:15;;;;;;;19.45;8.20;;;;;;;18.09;42.92;102209.84;5061048;28;20052;-74
2022/04/27 10:59:44;;;;;;;19.15;8.23;;;;;;;18.18;42.37;102195.38;5062047;28;20123;-73
2022/04/27 11:02:34;;;;;;;17.33;7.68;;;;;;;18.39;42.70;102200.84;5063908;28;20054;-73
2022/04/27 11:05:02;;;;;;;19.15;8.10;;;;;;;18.50;42.03;102205.13;5054574;28;20142;-73
2022/04/27 11:07:28;;;;;;;19.17;8.30;;;;;;;18.61;43.27;102208.59;5061136;28;20481;-73
2022/04/27 11:10:09;;;;;;;16.10;8.48;;;;;;;18.73;41.24;102205.25;5067266;28;20052;-75
2022/04/27 11:12:37;;;;;;;20.98;8.88;;;;;;;18.90;42.07;102207.06;5067191;28;20114;-74
2022/04/27 11:15:06;;;;;;;15.68;8.10;;;;;;;19.13;41.90;102209.22;5069358;28;20123;-73
2022/04/27 11:17:34;;;;;;;17.88;8.25;;;;;;;18.83;41.52;102198.72;5057252;28;20088;-70
2022/04/27 11:20:03;;;;;;;21.33;8.20;;;;;;;19.16;42.57;102202.72;5066172;28;20555;-70
2022/04/27 11:22:38;;;;;;;16.67;8.23;;;;;;;19.29;40.99;102201.00;5067979;28;20140;-70
2022/04/27 11:25:07;;;;;;;17.48;7.70;;;;;;;18.73;41.60;102207.28;5065685;28;20048;-70
2022/04/27 11:27:36;;;;;;;18.15;7.90;;;;;;;19.05;42.13;102196.47;5063520;28;20052;-69
2022/04/27 11:30:05;;;;;;;23.17;8.93;;;;;;;19.43;41.51;102200.78;5056539;28;20076;-70
2022/04/27 11:32:32;;;;;;;19.15;9.05;;;;;;;19.63;42.28;102199.72;5058465;28;20431;-70
2022/04/27 11:34:58;;;;;;;18.13;9.52;;;;;;;19.87;41.02;102198.53;5062276;28;20592;-72
2022/04/27 11:37:25;;;;;;;16.05;8.48;;;;;;;20.18;41.00;102196.41;5058946;28;20052;-73
2022/04/27 11:39:51;;;;;;;19.80;8.43;;;;;;;20.50;40.59;102190.22;5061744;28;20135;-73
2022/04/27 11:42:18;;;;;;;19.52;9.38;;;;;;;20.73;39.34;102198.63;5070424;28;20044;-74